createdAt,value
2022-12-18T00:08:57.143Z,-9.8
2022-12-18T00:18:57.490Z,-10.1
2022-12-18T00:28:58.024Z,-10.1
2022-12-18T00:38:58.490Z,-10
2022-12-18T00:58:59.807Z,-9.8
2022-12-18T01:39:01.392Z,-10
2022-12-18T01:49:01.912Z,-9.9
2022-12-18T01:59:02.717Z,-10
2022-12-18T02:19:02.884Z,-10.5
2022-12-18T02:29:03.274Z,-10.3
2022-12-18T02:39:03.446Z,-10.4
2022-12-18T02:49:03.759Z,-10.5
2022-12-18T02:59:04.574Z,-10.6
2022-12-18T03:09:05.064Z,-10.9
2022-12-18T03:19:05.362Z,-10.8
2022-12-18T03:29:05.759Z,-10.6
2022-12-18T03:39:05.860Z,-10.8
2022-12-18T03:49:06.905Z,-10.9
2022-12-18T03:59:07.520Z,-11
2022-12-18T04:09:07.889Z,-11.1
2022-12-18T04:19:08.162Z,-11.2
2022-12-18T04:29:08.661Z,-11.3
2022-12-18T04:39:09.489Z,-11.1
2022-12-18T04:49:10.177Z,-10.9
2022-12-18T04:59:10.579Z,-10.7
2022-12-18T05:09:10.808Z,-10.8
2022-12-18T05:19:11.624Z,-10.7
2022-12-18T05:29:11.855Z,-10.8
2022-12-18T05:39:12.054Z,-11
2022-12-18T05:39:34.063Z,-11
2022-12-18T05:49:18.655Z,-10.9
2022-12-18T05:59:18.709Z,-10.9
2022-12-18T06:09:18.818Z,-10.8
2022-12-18T06:19:19.372Z,-10.8
2022-12-18T06:29:19.850Z,-10.7
2022-12-18T06:39:20.548Z,-10.8
2022-12-18T06:49:21.212Z,-10.8
2022-12-18T06:59:21.603Z,-10.8
2022-12-18T07:09:21.807Z,-10.7
2022-12-18T07:19:22.175Z,-10.6
2022-12-18T07:29:23.156Z,-10.7
2022-12-18T07:39:23.541Z,-10.4
2022-12-18T08:09:25.194Z,-9.5
2022-12-18T08:19:25.483Z,-9.3
2022-12-18T08:29:25.937Z,-9.1
2022-12-18T08:39:26.067Z,-8.6
2022-12-18T08:49:26.583Z,-8.4
2022-12-18T09:09:27.712Z,-7.1
2022-12-18T09:19:28.524Z,-6.2
2022-12-18T09:29:28.623Z,-5.7
2022-12-18T09:39:29.128Z,-5.6
2022-12-18T10:09:30.690Z,-4
2022-12-18T10:19:31.274Z,-3.7
2022-12-18T10:39:32.689Z,-3.2
2022-12-18T11:09:34.271Z,-2.4
2022-12-18T11:19:35.103Z,-2.3
2022-12-18T11:29:35.581Z,-2.1
2022-12-18T11:39:36.513Z,-2
2022-12-18T11:49:37.533Z,-1.8
2022-12-18T11:59:37.751Z,-1.7
2022-12-18T12:09:38.546Z,-1.5
2022-12-18T12:19:38.931Z,-1.3
2022-12-18T12:29:39.739Z,-1.2
2022-12-18T12:39:39.940Z,-1.1
2022-12-18T12:49:40.861Z,-1
2022-12-18T13:09:40.921Z,-0.8
2022-12-18T13:19:41.470Z,-0.8
2022-12-18T13:29:42.220Z,-0.9
2022-12-18T13:39:42.589Z,-0.8
2022-12-18T13:49:42.710Z,-0.9
2022-12-18T13:59:43.589Z,-0.9
2022-12-18T14:09:44.068Z,-0.9
2022-12-18T14:19:44.451Z,-1
2022-12-18T14:29:44.891Z,-1.1
2022-12-18T14:39:45.089Z,-1.2
2022-12-18T14:59:46.040Z,-1.2
2022-12-18T15:09:46.387Z,-1.2
2022-12-18T15:19:47.350Z,-1.3
2022-12-18T15:29:48.226Z,-1.3
2022-12-18T15:39:48.519Z,-1.3
2022-12-18T15:49:49.092Z,-1.4
2022-12-18T15:59:49.546Z,-1.4
2022-12-18T16:09:49.681Z,-1.3
2022-12-18T16:19:50.013Z,-1.3
2022-12-18T16:29:50.747Z,-0.1
2022-12-18T16:39:51.421Z,0.8
2022-12-18T16:49:52.252Z,1.3
2022-12-18T16:59:52.986Z,1.2
2022-12-18T17:09:53.444Z,1.1
2022-12-18T17:19:54.189Z,1.2
2022-12-18T17:29:54.410Z,1.1
2022-12-18T17:39:55.247Z,1.1
2022-12-18T17:49:55.915Z,1.1
2022-12-18T17:59:56.335Z,1
2022-12-18T18:09:56.881Z,1
2022-12-18T18:19:57.907Z,1
2022-12-18T18:29:58.360Z,1
2022-12-18T18:49:59.742Z,0.8
2022-12-18T18:59:59.865Z,0.8
2022-12-18T19:10:02.085Z,0.8
2022-12-18T19:20:00.927Z,0.7
2022-12-18T19:30:01.900Z,0.6
2022-12-18T19:40:02.477Z,0.8
2022-12-18T19:50:02.946Z,0.8
2022-12-18T20:00:03.737Z,0.7
2022-12-18T20:10:08.558Z,0.8
2022-12-18T20:20:04.479Z,0.9
2022-12-18T20:30:04.677Z,1
2022-12-18T20:40:05.171Z,1.1
2022-12-18T20:50:06.186Z,1.2
2022-12-18T21:00:06.658Z,1.2
2022-12-18T21:10:07.395Z,1.1
2022-12-18T21:20:08.190Z,1
2022-12-18T21:30:08.481Z,0.9
2022-12-18T21:40:08.667Z,0.9
2022-12-18T21:50:08.895Z,0.8
2022-12-18T22:00:08.967Z,0.9
2022-12-18T22:10:09.330Z,1.1
2022-12-18T22:20:09.740Z,1.2
2022-12-18T22:30:10.774Z,1
2022-12-18T22:40:12.194Z,1.1
2022-12-18T22:50:11.842Z,1
2022-12-18T23:00:12.358Z,1.1
2022-12-18T23:10:13.192Z,1.2
2022-12-18T23:20:13.527Z,1.3
2022-12-18T23:30:13.754Z,1.3
2022-12-18T23:40:14.358Z,1.3
2022-12-18T23:50:14.503Z,1.4
